sensor_id;sensor_type;location;lat;lon;timestamp;pressure;altitude;pressure_sealevel;temperature;humidity
63907;BME280;50075;49.484;11.238;2023-01-28T00:01:54;98507.84;;;1.47;100.00
63907;BME280;50075;49.484;11.238;2023-01-28T00:04:19;98510.63;;;1.52;100.00
63907;BME280;50075;49.484;11.238;2023-01-28T00:06:45;98507.31;;;1.54;100.00
63907;BME280;50075;49.484;11.238;2023-01-28T00:09:10;98503.16;;;1.58;100.00
63907;BME280;50075;49.484;11.238;2023-01-28T00:11:36;98504.84;;;1.58;100.00
63907;BME280;50075;49.484;11.238;2023-01-28T00:14:01;98499.03;;;1.62;100.00
63907;BME280;50075;49.484;11.238;2023-01-28T00:16:29;98488.84;;;1.42;100.00
63907;BME280;50075;49.484;11.238;2023-01-28T00:18:54;98492.00;;;1.56;100.00
63907;BME280;50075;49.484;11.238;2023-01-28T00:21:20;98496.28;;;1.57;100.00
63907;BME280;50075;49.484;11.238;2023-01-28T00:23:53;98494.56;;;1.56;100.00
63907;BME280;50075;49.484;11.238;2023-01-28T00:26:19;98494.97;;;1.46;100.00
63907;BME280;50075;49.484;11.238;2023-01-28T00:28:45;98497.34;;;1.62;100.00
63907;BME280;50075;49.484;11.238;2023-01-28T00:31:16;98495.59;;;1.61;100.00
63907;BME280;50075;49.484;11.238;2023-01-28T00:33:42;98489.59;;;1.61;100.00
63907;BME280;50075;49.484;11.238;2023-01-28T00:36:08;98497.91;;;1.55;100.00
63907;BME280;50075;49.484;11.238;2023-01-28T00:38:34;98489.53;;;1.59;100.00
63907;BME280;50075;49.484;11.238;2023-01-28T00:41:13;98495.72;;;1.64;100.00
63907;BME280;50075;49.484;11.238;2023-01-28T00:43:39;98491.16;;;1.57;100.00
63907;BME280;50075;49.484;11.238;2023-01-28T00:46:06;98485.59;;;1.46;100.00
63907;BME280;50075;49.484;11.238;2023-01-28T00:48:33;98490.78;;;1.48;100.00
63907;BME280;50075;49.484;11.238;2023-01-28T00:50:59;98493.66;;;1.55;100.00
63907;BME280;50075;49.484;11.238;2023-01-28T00:53:24;98496.59;;;1.65;100.00
63907;BME280;50075;49.484;11.238;2023-01-28T00:55:50;98499.16;;;1.65;100.00
63907;BME280;50075;49.484;11.238;2023-01-28T00:58:16;98502.94;;;1.52;100.00
63907;BME280;50075;49.484;11.238;2023-01-28T01:00:41;98500.81;;;1.63;100.00
63907;BME280;50075;49.484;11.238;2023-01-28T01:03:07;98503.75;;;1.72;100.00
63907;BME280;50075;49.484;11.238;2023-01-28T01:05:32;98502.47;;;1.62;100.00
63907;BME280;50075;49.484;11.238;2023-01-28T01:07:59;98498.41;;;1.67;100.00
63907;BME280;50075;49.484;11.238;2023-01-28T01:10:24;98500.97;;;1.46;100.00
63907;BME280;50075;49.484;11.238;2023-01-28T01:12:50;98512.59;;;1.59;100.00
63907;BME280;50075;49.484;11.238;2023-01-28T01:15:16;98509.53;;;1.47;100.00
63907;BME280;50075;49.484;11.238;2023-01-28T01:17:44;98506.28;;;1.51;100.00
63907;BME280;50075;49.484;11.238;2023-01-28T01:20:21;98513.72;;;1.66;100.00
63907;BME280;50075;49.484;11.238;2023-01-28T01:22:47;98509.13;;;1.57;100.00
63907;BME280;50075;49.484;11.238;2023-01-28T01:25:14;98512.38;;;1.53;100.00
63907;BME280;50075;49.484;11.238;2023-01-28T01:27:41;98510.41;;;1.68;100.00
63907;BME280;50075;49.484;11.238;2023-01-28T01:30:07;98510.88;;;1.58;100.00
63907;BME280;50075;49.484;11.238;2023-01-28T01:32:34;98514.34;;;1.60;100.00
63907;BME280;50075;49.484;11.238;2023-01-28T01:35:00;98514.19;;;1.55;100.00
63907;BME280;50075;49.484;11.238;2023-01-28T01:37:26;98511.38;;;1.71;100.00
63907;BME280;50075;49.484;11.238;2023-01-28T01:39:52;98514.56;;;1.65;100.00
63907;BME280;50075;49.484;11.238;2023-01-28T01:42:18;98519.03;;;1.49;100.00
63907;BME280;50075;49.484;11.238;2023-01-28T01:45:03;98525.31;;;1.56;100.00
63907;BME280;50075;49.484;11.238;2023-01-28T01:47:42;98526.38;;;1.61;100.00
63907;BME280;50075;49.484;11.238;2023-01-28T01:52:40;98530.88;;;1.67;100.00
63907;BME280;50075;49.484;11.238;2023-01-28T01:55:11;98534.19;;;1.64;100.00
63907;BME280;50075;49.484;11.238;2023-01-28T01:57:38;98528.56;;;1.52;100.00
63907;BME280;50075;49.484;11.238;2023-01-28T02:00:05;98531.69;;;1.45;100.00
63907;BME280;50075;49.484;11.238;2023-01-28T02:02:43;98525.56;;;1.62;100.00
63907;BME280;50075;49.484;11.238;2023-01-28T02:05:11;98534.56;;;1.52;100.00
63907;BME280;50075;49.484;11.238;2023-01-28T02:07:37;98528.31;;;1.67;100.00
63907;BME280;50075;49.484;11.238;2023-01-28T02:10:04;98532.28;;;1.60;100.00
63907;BME280;50075;49.484;11.238;2023-01-28T02:12:36;98535.56;;;1.56;100.00
63907;BME280;50075;49.484;11.238;2023-01-28T02:15:05;98533.38;;;1.65;100.00
63907;BME280;50075;49.484;11.238;2023-01-28T02:17:31;98537.56;;;1.63;100.00
63907;BME280;50075;49.484;11.238;2023-01-28T02:20:05;98537.06;;;1.51;100.00
63907;BME280;50075;49.484;11.238;2023-01-28T02:28:17;98536.00;;;1.46;100.00
63907;BME280;50075;49.484;11.238;2023-01-28T02:31:06;98531.69;;;1.45;100.00
63907;BME280;50075;49.484;11.238;2023-01-28T02:33:56;98533.81;;;1.55;100.00
63907;BME280;50075;49.484;11.238;2023-01-28T02:36:46;98534.03;;;1.40;100.00
63907;BME280;50075;49.484;11.238;2023-01-28T02:39:23;98534.75;;;1.57;100.00
63907;BME280;50075;49.484;11.238;2023-01-28T02:42:13;98529.19;;;1.46;100.00
63907;BME280;50075;49.484;11.238;2023-01-28T02:44:42;98529.28;;;1.49;100.00
63907;BME280;50075;49.484;11.238;2023-01-28T02:47:11;98538.06;;;1.54;100.00
63907;BME280;50075;49.484;11.238;2023-01-28T02:49:58;98542.19;;;1.51;100.00
63907;BME280;50075;49.484;11.238;2023-01-28T03:01:25;98544.13;;;1.56;100.00
63907;BME280;50075;49.484;11.238;2023-01-28T03:06:19;98539.22;;;1.41;100.00
63907;BME280;50075;49.484;11.238;2023-01-28T03:09:01;98538.69;;;1.49;100.00
63907;BME280;50075;49.484;11.238;2023-01-28T03:11:50;98548.00;;;1.47;100.00
63907;BME280;50075;49.484;11.238;2023-01-28T03:14:35;98555.44;;;1.21;100.00
63907;BME280;50075;49.484;11.238;2023-01-28T03:17:44;98552.47;;;1.31;100.00
63907;BME280;50075;49.484;11.238;2023-01-28T03:20:50;98559.91;;;1.25;100.00
63907;BME280;50075;49.484;11.238;2023-01-28T03:26:30;98552.34;;;1.28;100.00
63907;BME280;50075;49.484;11.238;2023-01-28T03:29:15;98554.22;;;1.32;100.00
63907;BME280;50075;49.484;11.238;2023-01-28T03:32:01;98557.84;;;1.37;100.00
63907;BME280;50075;49.484;11.238;2023-01-28T03:34:46;98563.38;;;1.47;100.00
63907;BME280;50075;49.484;11.238;2023-01-28T03:37:31;98557.50;;;1.49;100.00
63907;BME280;50075;49.484;11.238;2023-01-28T03:40:01;98564.56;;;1.55;100.00
63907;BME280;50075;49.484;11.238;2023-01-28T03:42:26;98567.75;;;1.49;100.00
63907;BME280;50075;49.484;11.238;2023-01-28T03:44:52;98572.03;;;1.49;100.00
63907;BME280;50075;49.484;11.238;2023-01-28T03:47:19;98573.75;;;1.50;100.00
63907;BME280;50075;49.484;11.238;2023-01-28T03:49:47;98571.75;;;1.42;100.00
63907;BME280;50075;49.484;11.238;2023-01-28T03:52:21;98577.53;;;1.38;100.00
63907;BME280;50075;49.484;11.238;2023-01-28T03:54:47;98584.63;;;1.44;100.00
63907;BME280;50075;49.484;11.238;2023-01-28T03:57:14;98577.22;;;1.30;100.00
63907;BME280;50075;49.484;11.238;2023-01-28T03:59:40;98577.09;;;1.27;100.00
63907;BME280;50075;49.484;11.238;2023-01-28T04:02:06;98582.06;;;1.44;100.00
63907;BME280;50075;49.484;11.238;2023-01-28T04:04:32;98584.00;;;1.50;100.00
63907;BME280;50075;49.484;11.238;2023-01-28T04:06:58;98587.25;;;1.46;100.00
63907;BME280;50075;49.484;11.238;2023-01-28T04:09:23;98589.56;;;1.39;100.00
63907;BME280;50075;49.484;11.238;2023-01-28T04:11:49;98578.66;;;1.43;100.00
63907;BME280;50075;49.484;11.238;2023-01-28T04:14:18;98591.38;;;1.42;100.00
63907;BME280;50075;49.484;11.238;2023-01-28T04:16:43;98589.22;;;1.32;100.00
63907;BME280;50075;49.484;11.238;2023-01-28T04:19:09;98591.38;;;1.42;100.00
63907;BME280;50075;49.484;11.238;2023-01-28T04:21:35;98590.13;;;1.32;100.00
63907;BME280;50075;49.484;11.238;2023-01-28T04:24:00;98592.25;;;1.42;100.00
63907;BME280;50075;49.484;11.238;2023-01-28T04:26:26;98589.19;;;1.30;100.00
63907;BME280;50075;49.484;11.238;2023-01-28T04:28:52;98592.00;;;1.36;100.00
63907;BME280;50075;49.484;11.238;2023-01-28T04:31:17;98595.25;;;1.32;100.00
63907;BME280;50075;49.484;11.238;2023-01-28T04:33:43;98601.94;;;1.28;100.00
63907;BME280;50075;49.484;11.238;2023-01-28T04:36:08;98604.88;;;1.38;100.00
63907;BME280;50075;49.484;11.238;2023-01-28T04:38:33;98604.75;;;1.35;100.00
63907;BME280;50075;49.484;11.238;2023-01-28T04:40:59;98607.13;;;1.30;100.00
63907;BME280;50075;49.484;11.238;2023-01-28T04:43:24;98608.19;;;1.35;100.00
63907;BME280;50075;49.484;11.238;2023-01-28T04:45:50;98609.56;;;1.27;100.00
63907;BME280;50075;49.484;11.238;2023-01-28T04:48:15;98606.91;;;1.45;100.00
63907;BME280;50075;49.484;11.238;2023-01-28T04:50:42;98606.69;;;1.40;100.00
63907;BME280;50075;49.484;11.238;2023-01-28T04:53:08;98611.00;;;1.41;100.00
63907;BME280;50075;49.484;11.238;2023-01-28T04:55:33;98612.25;;;1.30;100.00
63907;BME280;50075;49.484;11.238;2023-01-28T04:57:59;98610.09;;;1.39;100.00
63907;BME280;50075;49.484;11.238;2023-01-28T05:00:24;98609.13;;;1.37;100.00
63907;BME280;50075;49.484;11.238;2023-01-28T05:02:49;98608.31;;;1.38;100.00
63907;BME280;50075;49.484;11.238;2023-01-28T05:05:15;98602.09;;;1.33;100.00
63907;BME280;50075;49.484;11.238;2023-01-28T05:07:41;98611.16;;;1.25;100.00
63907;BME280;50075;49.484;11.238;2023-01-28T05:10:06;98611.16;;;1.25;100.00
63907;BME280;50075;49.484;11.238;2023-01-28T05:12:32;98606.31;;;1.31;100.00
63907;BME280;50075;49.484;11.238;2023-01-28T05:14:58;98609.25;;;1.40;100.00
63907;BME280;50075;49.484;11.238;2023-01-28T05:17:27;98612.25;;;1.30;100.00
63907;BME280;50075;49.484;11.238;2023-01-28T05:19:53;98614.66;;;1.27;100.00
63907;BME280;50075;49.484;11.238;2023-01-28T05:22:18;98612.38;;;1.33;100.00
63907;BME280;50075;49.484;11.238;2023-01-28T05:24:44;98609.25;;;1.40;100.00
63907;BME280;50075;49.484;11.238;2023-01-28T05:27:09;98611.16;;;1.25;100.00
63907;BME280;50075;49.484;11.238;2023-01-28T05:29:34;98613.78;;;1.26;100.00
63907;BME280;50075;49.484;11.238;2023-01-28T05:32:00;98614.81;;;1.30;100.00
63907;BME280;50075;49.484;11.238;2023-01-28T05:34:25;98618.97;;;1.28;100.00
63907;BME280;50075;49.484;11.238;2023-01-28T05:36:50;98623.75;;;1.40;100.00
63907;BME280;50075;49.484;11.238;2023-01-28T05:39:16;98620.13;;;1.35;100.00
63907;BME280;50075;49.484;11.238;2023-01-28T05:41:41;98610.34;;;1.46;100.00
63907;BME280;50075;49.484;11.238;2023-01-28T05:44:07;98609.50;;;1.47;100.00
63907;BME280;50075;49.484;11.238;2023-01-28T05:46:32;98612.66;;;1.39;100.00
63907;BME280;50075;49.484;11.238;2023-01-28T05:48:57;98621.94;;;1.37;100.00
63907;BME280;50075;49.484;11.238;2023-01-28T05:51:23;98621.63;;;1.29;100.00
63907;BME280;50075;49.484;11.238;2023-01-28T05:53:48;98625.00;;;1.28;100.00
63907;BME280;50075;49.484;11.238;2023-01-28T05:56:13;98624.03;;;1.26;100.00
63907;BME280;50075;49.484;11.238;2023-01-28T05:58:39;98622.81;;;1.18;100.00
63907;BME280;50075;49.484;11.238;2023-01-28T06:01:04;98619.94;;;1.30;100.00
63907;BME280;50075;49.484;11.238;2023-01-28T06:03:30;98628.16;;;1.23;100.00
63907;BME280;50075;49.484;11.238;2023-01-28T06:05:55;98624.25;;;1.31;100.00
63907;BME280;50075;49.484;11.238;2023-01-28T06:08:20;98627.63;;;1.30;100.00
63907;BME280;50075;49.484;11.238;2023-01-28T06:10:46;98626.53;;;1.25;100.00
63907;BME280;50075;49.484;11.238;2023-01-28T06:13:11;98629.38;;;1.31;100.00
63907;BME280;50075;49.484;11.238;2023-01-28T06:15:37;98636.00;;;1.26;100.00
63907;BME280;50075;49.484;11.238;2023-01-28T06:18:02;98640.09;;;1.22;100.00
63907;BME280;50075;49.484;11.238;2023-01-28T06:20:28;98634.44;;;1.29;100.00
63907;BME280;50075;49.484;11.238;2023-01-28T06:22:53;98635.56;;;1.36;100.00
63907;BME280;50075;49.484;11.238;2023-01-28T06:25:19;98638.47;;;1.44;100.00
63907;BME280;50075;49.484;11.238;2023-01-28T06:27:44;98637.59;;;1.43;100.00
63907;BME280;50075;49.484;11.238;2023-01-28T06:30:10;98641.38;;;1.32;100.00
63907;BME280;50075;49.484;11.238;2023-01-28T06:32:36;98645.69;;;1.33;100.00
63907;BME280;50075;49.484;11.238;2023-01-28T06:35:01;98652.63;;;1.36;100.00
63907;BME280;50075;49.484;11.238;2023-01-28T06:37:27;98654.94;;;1.29;100.00
63907;BME280;50075;49.484;11.238;2023-01-28T06:39:52;98655.00;;;1.31;100.00
63907;BME280;50075;49.484;11.238;2023-01-28T06:42:17;98663.31;;;1.45;100.00
63907;BME280;50075;49.484;11.238;2023-01-28T06:44:43;98661.34;;;1.39;100.00
63907;BME280;50075;49.484;11.238;2023-01-28T06:47:08;98664.25;;;1.47;100.00
63907;BME280;50075;49.484;11.238;2023-01-28T06:49:38;98663.66;;;1.53;100.00
63907;BME280;50075;49.484;11.238;2023-01-28T06:52:03;98662.34;;;1.43;100.00
63907;BME280;50075;49.484;11.238;2023-01-28T06:54:29;98674.50;;;1.47;100.00
63907;BME280;50075;49.484;11.238;2023-01-28T06:56:54;98670.50;;;1.54;100.00
63907;BME280;50075;49.484;11.238;2023-01-28T06:59:20;98675.50;;;1.51;100.00
63907;BME280;50075;49.484;11.238;2023-01-28T07:01:45;98671.78;;;1.44;100.00
63907;BME280;50075;49.484;11.238;2023-01-28T07:04:11;98677.53;;;1.58;100.00
63907;BME280;50075;49.484;11.238;2023-01-28T07:06:36;98676.59;;;1.56;100.00
63907;BME280;50075;49.484;11.238;2023-01-28T07:09:01;98682.34;;;1.50;100.00
63907;BME280;50075;49.484;11.238;2023-01-28T07:11:27;98676.06;;;1.43;100.00
63907;BME280;50075;49.484;11.238;2023-01-28T07:13:52;98674.44;;;1.46;100.00
63907;BME280;50075;49.484;11.238;2023-01-28T07:16:17;98689.06;;;1.48;100.00
63907;BME280;50075;49.484;11.238;2023-01-28T07:18:43;98690.34;;;1.58;100.00
63907;BME280;50075;49.484;11.238;2023-01-28T07:21:08;98689.53;;;1.59;100.00
63907;BME280;50075;49.484;11.238;2023-01-28T07:23:34;98692.66;;;1.52;100.00
63907;BME280;50075;49.484;11.238;2023-01-28T07:26:03;98697.72;;;1.50;100.00
63907;BME280;50075;49.484;11.238;2023-01-28T07:28:28;98697.84;;;1.53;100.00
63907;BME280;50075;49.484;11.238;2023-01-28T07:30:54;98699.69;;;1.56;100.00
63907;BME280;50075;49.484;11.238;2023-01-28T07:33:19;98706.28;;;1.71;100.00
63907;BME280;50075;49.484;11.238;2023-01-28T07:35:46;98700.88;;;1.64;100.00
63907;BME280;50075;49.484;11.238;2023-01-28T07:38:11;98704.53;;;1.69;100.00
63907;BME280;50075;49.484;11.238;2023-01-28T07:40:37;98701.53;;;1.60;100.00
63907;BME280;50075;49.484;11.238;2023-01-28T07:43:02;98700.25;;;1.70;100.00
63907;BME280;50075;49.484;11.238;2023-01-28T07:45:28;98702.28;;;1.97;100.00
63907;BME280;50075;49.484;11.238;2023-01-28T07:50:20;98701.69;;;1.83;100.00
63907;BME280;50075;49.484;11.238;2023-01-28T07:52:45;98703.81;;;1.93;100.00
63907;BME280;50075;49.484;11.238;2023-01-28T07:55:11;98704.22;;;2.03;100.00
63907;BME280;50075;49.484;11.238;2023-01-28T08:00:15;98703.06;;;1.96;100.00
63907;BME280;50075;49.484;11.238;2023-01-28T08:02:40;98714.09;;;1.93;100.00
63907;BME280;50075;49.484;11.238;2023-01-28T08:05:09;98712.56;;;1.97;100.00
63907;BME280;50075;49.484;11.238;2023-01-28T08:07:34;98703.81;;;1.93;100.00
63907;BME280;50075;49.484;11.238;2023-01-28T08:09:59;98716.97;;;2.01;100.00
63907;BME280;50075;49.484;11.238;2023-01-28T08:12:25;98708.34;;;1.99;100.00
63907;BME280;50075;49.484;11.238;2023-01-28T08:14:50;98714.06;;;2.13;100.00
63907;BME280;50075;49.484;11.238;2023-01-28T08:17:15;98721.59;;;1.89;100.00
63907;BME280;50075;49.484;11.238;2023-01-28T08:19:41;98716.25;;;2.04;100.00
63907;BME280;50075;49.484;11.238;2023-01-28T08:22:06;98723.72;;;2.19;100.00
63907;BME280;50075;49.484;11.238;2023-01-28T08:24:31;98727.22;;;2.21;100.00
63907;BME280;50075;49.484;11.238;2023-01-28T08:26:57;98727.75;;;2.14;100.00
63907;BME280;50075;49.484;11.238;2023-01-28T08:29:22;98729.72;;;2.19;100.00
63907;BME280;50075;49.484;11.238;2023-01-28T08:31:47;98731.44;;;2.40;100.00
63907;BME280;50075;49.484;11.238;2023-01-28T08:34:13;98726.44;;;2.43;100.00
63907;BME280;50075;49.484;11.238;2023-01-28T08:36:38;98721.41;;;2.46;100.00
63907;BME280;50075;49.484;11.238;2023-01-28T08:39:03;98729.75;;;2.00;100.00
63907;BME280;50075;49.484;11.238;2023-01-28T08:41:30;98726.16;;;2.16;100.00
63907;BME280;50075;49.484;11.238;2023-01-28T08:43:55;98727.34;;;2.45;100.00
63907;BME280;50075;49.484;11.238;2023-01-28T08:46:20;98731.22;;;2.36;100.00
63907;BME280;50075;49.484;11.238;2023-01-28T08:48:48;98726.72;;;2.51;100.00
63907;BME280;50075;49.484;11.238;2023-01-28T08:51:14;98734.53;;;2.33;100.00
63907;BME280;50075;49.484;11.238;2023-01-28T08:53:39;98737.34;;;2.18;100.00
63907;BME280;50075;49.484;11.238;2023-01-28T08:56:05;98736.09;;;2.49;100.00
63907;BME280;50075;49.484;11.238;2023-01-28T08:58:30;98734.38;;;2.50;100.00
63907;BME280;50075;49.484;11.238;2023-01-28T09:00:56;98741.00;;;2.23;100.00
63907;BME280;50075;49.484;11.238;2023-01-28T09:03:22;98738.81;;;2.32;100.00
63907;BME280;50075;49.484;11.238;2023-01-28T09:05:47;98740.84;;;2.61;100.00
63907;BME280;50075;49.484;11.238;2023-01-28T09:08:14;98734.25;;;2.68;100.00
63907;BME280;50075;49.484;11.238;2023-01-28T09:10:40;98733.03;;;2.81;100.00
63907;BME280;50075;49.484;11.238;2023-01-28T09:13:08;98735.22;;;2.93;100.00
63907;BME280;50075;49.484;11.238;2023-01-28T09:15:34;98743.03;;;2.96;100.00
63907;BME280;50075;49.484;11.238;2023-01-28T09:18:00;98737.19;;;3.21;100.00
63907;BME280;50075;49.484;11.238;2023-01-28T09:20:26;98744.00;;;3.21;100.00
63907;BME280;50075;49.484;11.238;2023-01-28T09:22:52;98743.16;;;2.99;100.00
63907;BME280;50075;49.484;11.238;2023-01-28T09:25:17;98752.88;;;3.29;100.00
63907;BME280;50075;49.484;11.238;2023-01-28T09:27:43;98749.28;;;3.24;100.00
63907;BME280;50075;49.484;11.238;2023-01-28T09:30:09;98747.06;;;2.89;100.00
63907;BME280;50075;49.484;11.238;2023-01-28T09:32:35;98754.41;;;3.01;100.00
63907;BME280;50075;49.484;11.238;2023-01-28T09:35:01;98759.44;;;3.21;100.00
63907;BME280;50075;49.484;11.238;2023-01-28T09:37:26;98760.53;;;3.50;100.00
63907;BME280;50075;49.484;11.238;2023-01-28T09:39:52;98766.56;;;3.28;100.00
63907;BME280;50075;49.484;11.238;2023-01-28T09:45:11;98767.50;;;3.30;100.00
63907;BME280;50075;49.484;11.238;2023-01-28T09:47:44;98773.25;;;3.02;100.00
63907;BME280;50075;49.484;11.238;2023-01-28T09:50:25;98780.53;;;3.35;100.00
63907;BME280;50075;49.484;11.238;2023-01-28T09:52:55;98778.13;;;3.17;100.00
63907;BME280;50075;49.484;11.238;2023-01-28T09:55:30;98777.56;;;3.24;100.00
63907;BME280;50075;49.484;11.238;2023-01-28T09:57:57;98778.38;;;3.23;100.00
63907;BME280;50075;49.484;11.238;2023-01-28T10:00:37;98778.09;;;3.38;100.00
63907;BME280;50075;49.484;11.238;2023-01-28T10:03:12;98780.06;;;3.22;100.00
63907;BME280;50075;49.484;11.238;2023-01-28T10:13:58;98769.75;;;2.99;100.00
63907;BME280;50075;49.484;11.238;2023-01-28T10:16:47;98779.56;;;2.25;100.00
63907;BME280;50075;49.484;11.238;2023-01-28T10:19:30;98775.38;;;2.07;100.00
63907;BME280;50075;49.484;11.238;2023-01-28T10:24:50;98776.09;;;2.65;100.00
63907;BME280;50075;49.484;11.238;2023-01-28T10:27:21;98774.41;;;2.87;100.00
63907;BME280;50075;49.484;11.238;2023-01-28T10:29:49;98771.97;;;2.90;100.00
63907;BME280;50075;49.484;11.238;2023-01-28T10:32:31;98774.50;;;3.11;100.00
63907;BME280;50075;49.484;11.238;2023-01-28T10:34:58;98768.81;;;3.20;100.00
63907;BME280;50075;49.484;11.238;2023-01-28T10:37:26;98767.81;;;3.38;100.00
63907;BME280;50075;49.484;11.238;2023-01-28T10:39:56;98763.44;;;3.37;100.00
63907;BME280;50075;49.484;11.238;2023-01-28T10:42:33;98762.75;;;3.41;100.00
63907;BME280;50075;49.484;11.238;2023-01-28T10:50:26;98753.69;;;3.98;100.00
63907;BME280;50075;49.484;11.238;2023-01-28T10:52:56;98747.69;;;3.99;100.00
63907;BME280;50075;49.484;11.238;2023-01-28T10:55:44;98754.72;;;4.03;100.00
63907;BME280;50075;49.484;11.238;2023-01-28T10:58:27;98751.88;;;4.48;100.00
63907;BME280;50075;49.484;11.238;2023-01-28T11:00:55;98753.09;;;4.32;100.00
63907;BME280;50075;49.484;11.238;2023-01-28T11:03:22;98770.97;;;4.53;100.00
63907;BME280;50075;49.484;11.238;2023-01-28T11:05:53;98763.19;;;4.77;100.00
63907;BME280;50075;49.484;11.238;2023-01-28T11:08:23;98761.31;;;4.73;100.00
63907;BME280;50075;49.484;11.238;2023-01-28T11:10:51;98763.03;;;3.96;100.00
63907;BME280;50075;49.484;11.238;2023-01-28T11:13:23;98762.78;;;3.88;100.00
63907;BME280;50075;49.484;11.238;2023-01-28T11:18:21;98767.53;;;3.77;100.00
63907;BME280;50075;49.484;11.238;2023-01-28T11:20:55;98769.38;;;4.06;100.00
63907;BME280;50075;49.484;11.238;2023-01-28T11:23:24;98771.75;;;4.50;100.00
63907;BME280;50075;49.484;11.238;2023-01-28T11:26:14;98769.38;;;4.56;100.00
63907;BME280;50075;49.484;11.238;2023-01-28T11:28:42;98771.00;;;4.80;100.00
63907;BME280;50075;49.484;11.238;2023-01-28T11:31:11;98770.50;;;4.39;100.00
63907;BME280;50075;49.484;11.238;2023-01-28T11:33:41;98783.81;;;4.51;100.00
63907;BME280;50075;49.484;11.238;2023-01-28T11:36:29;98778.38;;;4.43;100.00
63907;BME280;50075;49.484;11.238;2023-01-28T11:38:57;98774.63;;;4.60;100.00
63907;BME280;50075;49.484;11.238;2023-01-28T11:41:33;98773.41;;;5.02;100.00
63907;BME280;50075;49.484;11.238;2023-01-28T11:44:07;98766.28;;;5.22;100.00
63907;BME280;50075;49.484;11.238;2023-01-28T11:52:24;98766.22;;;5.79;100.00
63907;BME280;50075;49.484;11.238;2023-01-28T11:58:02;98765.91;;;5.39;100.00
63907;BME280;50075;49.484;11.238;2023-01-28T12:00:59;98772.16;;;5.18;100.00
63907;BME280;50075;49.484;11.238;2023-01-28T12:03:38;98760.59;;;5.32;100.00
63907;BME280;50075;49.484;11.238;2023-01-28T12:28:36;98767.22;;;4.97;100.00
63907;BME280;50075;49.484;11.238;2023-01-28T12:36:54;98765.97;;;4.32;100.00
63907;BME280;50075;49.484;11.238;2023-01-28T12:45:14;98765.06;;;4.55;100.00
63907;BME280;50075;49.484;11.238;2023-01-28T12:47:47;98763.25;;;4.80;100.00
63907;BME280;50075;49.484;11.238;2023-01-28T12:50:38;98761.00;;;4.90;100.00
63907;BME280;50075;49.484;11.238;2023-01-28T12:56:09;98761.66;;;4.84;100.00
63907;BME280;50075;49.484;11.238;2023-01-28T13:01:12;98755.84;;;5.17;100.00
63907;BME280;50075;49.484;11.238;2023-01-28T13:03:48;98760.28;;;5.52;100.00
63907;BME280;50075;49.484;11.238;2023-01-28T13:06:24;98756.91;;;5.26;100.00
63907;BME280;50075;49.484;11.238;2023-01-28T13:08:55;98757.03;;;4.74;100.00
63907;BME280;50075;49.484;11.238;2023-01-28T13:11:28;98746.78;;;5.61;100.00
63907;BME280;50075;49.484;11.238;2023-01-28T13:13:54;98758.13;;;5.66;100.00
63907;BME280;50075;49.484;11.238;2023-01-28T13:16:20;98757.50;;;5.44;100.00
63907;BME280;50075;49.484;11.238;2023-01-28T13:18:45;98761.75;;;5.44;100.00
63907;BME280;50075;49.484;11.238;2023-01-28T13:23:50;98762.03;;;5.53;100.00
63907;BME280;50075;49.484;11.238;2023-01-28T13:26:30;98751.78;;;5.85;100.00
63907;BME280;50075;49.484;11.238;2023-01-28T13:31:44;98763.78;;;5.25;100.00
63907;BME280;50075;49.484;11.238;2023-01-28T13:36:55;98766.44;;;5.27;100.00
63907;BME280;50075;49.484;11.238;2023-01-28T13:39:23;98765.03;;;4.81;100.00
63907;BME280;50075;49.484;11.238;2023-01-28T13:44:18;98768.56;;;5.13;100.00
63907;BME280;50075;49.484;11.238;2023-01-28T13:46:44;98767.75;;;5.73;100.00
63907;BME280;50075;49.484;11.238;2023-01-28T13:49:15;98777.88;;;5.07;100.00
63907;BME280;50075;49.484;11.238;2023-01-28T13:51:51;98768.47;;;5.10;100.00
63907;BME280;50075;49.484;11.238;2023-01-28T13:54:21;98771.81;;;5.34;100.00
63907;BME280;50075;49.484;11.238;2023-01-28T14:02:23;98770.63;;;4.68;100.00
63907;BME280;50075;49.484;11.238;2023-01-28T14:16:37;98784.22;;;5.77;100.00
63907;BME280;50075;49.484;11.238;2023-01-28T14:19:10;98785.94;;;5.47;100.00
63907;BME280;50075;49.484;11.238;2023-01-28T14:21:37;98793.00;;;5.24;100.00
63907;BME280;50075;49.484;11.238;2023-01-28T14:24:03;98799.47;;;5.68;100.00
63907;BME280;50075;49.484;11.238;2023-01-28T14:32:12;98802.50;;;5.54;100.00
63907;BME280;50075;49.484;11.238;2023-01-28T14:34:39;98810.50;;;5.07;100.00
63907;BME280;50075;49.484;11.238;2023-01-28T14:37:08;98819.47;;;4.91;100.00
63907;BME280;50075;49.484;11.238;2023-01-28T14:39:42;98821.38;;;4.71;100.00
63907;BME280;50075;49.484;11.238;2023-01-28T14:42:31;98822.94;;;4.65;100.00
63907;BME280;50075;49.484;11.238;2023-01-28T14:51:02;98829.34;;;5.04;100.00
63907;BME280;50075;49.484;11.238;2023-01-28T14:59:19;98829.00;;;5.21;100.00
63907;BME280;50075;49.484;11.238;2023-01-28T15:01:47;98827.31;;;4.94;100.00
63907;BME280;50075;49.484;11.238;2023-01-28T15:04:25;98836.31;;;4.55;100.00
63907;BME280;50075;49.484;11.238;2023-01-28T15:06:51;98830.03;;;4.73;100.00
63907;BME280;50075;49.484;11.238;2023-01-28T15:09:17;98828.22;;;4.70;100.00
63907;BME280;50075;49.484;11.238;2023-01-28T15:11:44;98838.16;;;4.85;100.00
63907;BME280;50075;49.484;11.238;2023-01-28T15:14:30;98840.00;;;5.15;100.00
63907;BME280;50075;49.484;11.238;2023-01-28T15:16:56;98846.84;;;5.13;100.00
63907;BME280;50075;49.484;11.238;2023-01-28T15:19:28;98854.81;;;4.69;100.00
63907;BME280;50075;49.484;11.238;2023-01-28T15:21:59;98859.75;;;4.63;100.00
63907;BME280;50075;49.484;11.238;2023-01-28T15:24:26;98854.81;;;4.95;100.00